createdAt,value
2023-01-25T00:01:08.470Z,90.09
2023-01-25T00:03:37.213Z,89.89
2023-01-25T00:06:08.274Z,89.52
2023-01-25T00:08:38.559Z,89.37
2023-01-25T00:11:07.228Z,89.47
2023-01-25T00:13:35.987Z,89.30
2023-01-25T00:16:06.181Z,89.09
2023-01-25T00:18:34.874Z,89.08
2023-01-25T00:21:16.209Z,88.70
2023-01-25T00:23:45.021Z,88.56
2023-01-25T00:26:14.276Z,89.55
2023-01-25T00:28:43.326Z,89.18
2023-01-25T00:31:22.400Z,89.13
2023-01-25T00:34:03.097Z,89.11
2023-01-25T00:36:43.410Z,88.88
2023-01-25T00:39:15.001Z,89.14
2023-01-25T00:41:44.571Z,89.04
2023-01-25T00:44:13.398Z,88.88
2023-01-25T00:46:42.103Z,89.33
2023-01-25T00:49:23.847Z,89.30
2023-01-25T00:51:55.978Z,89.19
2023-01-25T00:54:25.531Z,89.39
2023-01-25T00:56:56.487Z,89.19
2023-01-25T00:59:25.948Z,89.02
2023-01-25T01:01:57.243Z,89.12
2023-01-25T01:04:26.422Z,89.19
2023-01-25T01:06:57.514Z,89.03
2023-01-25T01:09:26.564Z,88.76
2023-01-25T01:11:55.958Z,88.75
2023-01-25T01:14:25.360Z,88.71
2023-01-25T01:16:55.398Z,88.81
2023-01-25T01:19:26.251Z,88.50
2023-01-25T01:21:56.485Z,88.76
2023-01-25T01:24:25.234Z,88.82
2023-01-25T01:26:53.899Z,88.81
2023-01-25T01:29:22.784Z,88.53
2023-01-25T01:31:52.695Z,88.54
2023-01-25T01:34:25.394Z,88.84
2023-01-25T01:36:56.319Z,88.47
2023-01-25T01:39:25.487Z,88.55
2023-01-25T01:41:54.261Z,88.71
2023-01-25T01:44:38.825Z,88.61
2023-01-25T01:47:17.251Z,88.80
2023-01-25T01:49:55.491Z,88.65
2023-01-25T01:52:34.679Z,88.68
2023-01-25T01:55:10.293Z,88.90
2023-01-25T01:57:47.387Z,88.57
2023-01-25T02:00:22.129Z,88.42
2023-01-25T02:02:53.040Z,89.21
2023-01-25T02:05:32.520Z,88.80
2023-01-25T02:08:06.859Z,88.70
2023-01-25T02:10:38.193Z,88.45
2023-01-25T02:13:07.032Z,88.71
2023-01-25T02:15:43.138Z,88.69
2023-01-25T02:18:13.560Z,88.54
2023-01-25T02:20:45.342Z,88.54
2023-01-25T02:23:26.909Z,88.99
2023-01-25T02:25:59.006Z,88.80
2023-01-25T02:28:34.278Z,88.50
2023-01-25T02:31:03.242Z,88.45
2023-01-25T02:33:32.364Z,88.45
2023-01-25T02:36:20.487Z,88.27
2023-01-25T02:38:57.110Z,88.48
2023-01-25T02:41:34.577Z,88.32
2023-01-25T02:44:07.845Z,88.23
2023-01-25T02:46:40.034Z,88.82
2023-01-25T02:49:11.772Z,87.86
2023-01-25T02:51:43.881Z,87.86
2023-01-25T02:54:15.509Z,88.26
2023-01-25T02:56:45.721Z,88.18
2023-01-25T02:59:15.192Z,88.04
2023-01-25T03:01:48.869Z,88.00
2023-01-25T03:04:18.356Z,88.03
2023-01-25T03:06:47.083Z,87.38
2023-01-25T03:09:16.007Z,87.89
2023-01-25T03:11:49.786Z,87.93
2023-01-25T03:14:21.973Z,88.07
2023-01-25T03:16:51.478Z,88.07
2023-01-25T03:19:23.503Z,87.65
2023-01-25T03:21:52.259Z,88.01
2023-01-25T03:24:21.334Z,88.19
2023-01-25T03:27:09.074Z,87.80
2023-01-25T03:29:43.863Z,88.77
2023-01-25T03:32:18.110Z,88.80
2023-01-25T03:34:46.948Z,88.07
2023-01-25T03:37:16.420Z,88.00
2023-01-25T03:39:45.943Z,87.85
2023-01-25T03:42:16.281Z,87.79
2023-01-25T03:44:46.048Z,87.85
2023-01-25T03:47:15.046Z,87.77
2023-01-25T03:49:44.636Z,87.76
2023-01-25T03:52:13.613Z,87.83
2023-01-25T03:54:43.801Z,87.58
2023-01-25T03:57:13.105Z,87.64
2023-01-25T03:59:52.591Z,87.52
2023-01-25T04:02:21.974Z,87.62
2023-01-25T04:04:50.720Z,87.70
2023-01-25T04:07:21.350Z,87.74
2023-01-25T04:09:51.498Z,87.49
2023-01-25T04:12:20.820Z,87.71
2023-01-25T04:14:49.548Z,87.27
2023-01-25T04:17:24.857Z,87.36
2023-01-25T04:20:06.346Z,87.30
2023-01-25T04:22:39.207Z,87.42
2023-01-25T04:25:09.820Z,87.16
2023-01-25T04:27:44.657Z,87.25
2023-01-25T04:30:17.445Z,87.32
2023-01-25T04:32:49.151Z,86.99
2023-01-25T04:35:25.690Z,86.82
2023-01-25T04:37:56.284Z,86.69
2023-01-25T04:40:28.434Z,86.66
2023-01-25T04:42:58.266Z,86.88
2023-01-25T04:45:28.113Z,86.78
2023-01-25T04:48:30.127Z,86.83
2023-01-25T04:51:04.945Z,86.98
2023-01-25T04:53:35.693Z,86.96
2023-01-25T04:56:08.894Z,87.18
2023-01-25T04:58:50.453Z,86.78
2023-01-25T05:01:19.372Z,86.82
2023-01-25T05:03:53.887Z,86.66
2023-01-25T05:06:43.708Z,86.72
2023-01-25T05:09:17.545Z,86.52
2023-01-25T05:11:48.060Z,86.07
2023-01-25T05:14:28.365Z,86.87
2023-01-25T05:16:58.551Z,86.54
2023-01-25T05:19:29.022Z,86.20
2023-01-25T05:22:15.674Z,86.83
2023-01-25T05:24:55.351Z,86.86
2023-01-25T05:27:25.715Z,86.98
2023-01-25T05:30:03.583Z,86.66
2023-01-25T05:32:59.911Z,86.32
2023-01-25T05:35:35.789Z,86.20
2023-01-25T05:38:08.371Z,86.28
2023-01-25T05:40:37.886Z,86.17
2023-01-25T05:43:09.178Z,86.12
2023-01-25T05:45:40.638Z,86.02
2023-01-25T05:48:11.014Z,86.54
2023-01-25T05:50:41.523Z,86.97
2023-01-25T05:57:41.375Z,86.09
2023-01-25T06:00:12.988Z,86.15
2023-01-25T06:02:44.790Z,86.46
2023-01-25T06:05:43.868Z,86.02
2023-01-25T06:08:13.048Z,86.48
2023-01-25T06:10:53.429Z,85.98
2023-01-25T06:13:22.404Z,86.07
2023-01-25T06:15:54.683Z,86.03
2023-01-25T06:18:55.479Z,85.84
2023-01-25T06:21:27.869Z,86.14
2023-01-25T06:23:56.713Z,86.30
2023-01-25T06:26:25.461Z,86.53
2023-01-25T06:28:54.207Z,86.74
2023-01-25T06:31:22.967Z,87.24
2023-01-25T06:33:59.232Z,86.76
2023-01-25T06:36:30.766Z,86.51
2023-01-25T06:38:59.710Z,86.30
2023-01-25T06:41:28.665Z,86.33
2023-01-25T06:43:57.473Z,85.94
2023-01-25T06:46:26.328Z,85.81
2023-01-25T06:48:55.081Z,85.65
2023-01-25T06:51:23.866Z,85.54
2023-01-25T06:53:53.901Z,85.38
2023-01-25T06:56:24.073Z,85.74
2023-01-25T06:58:52.920Z,86.22
2023-01-25T07:01:27.228Z,86.28
2023-01-25T07:03:59.046Z,86.05
2023-01-25T07:06:34.084Z,85.77
2023-01-25T07:09:10.887Z,85.92
2023-01-25T07:11:39.605Z,86.07
2023-01-25T07:14:08.487Z,85.77
2023-01-25T07:16:38.682Z,84.99
2023-01-25T07:19:08.687Z,85.34
2023-01-25T07:21:37.534Z,86.24
2023-01-25T07:24:08.380Z,86.62
2023-01-25T07:26:37.099Z,86.71
2023-01-25T07:29:05.768Z,86.10
2023-01-25T07:31:34.493Z,86.44
2023-01-25T07:34:03.301Z,86.58
2023-01-25T07:36:32.437Z,86.46
2023-01-25T07:39:01.106Z,86.44
2023-01-25T07:41:32.532Z,86.59
2023-01-25T07:44:01.235Z,86.28
2023-01-25T07:46:35.901Z,85.79
2023-01-25T07:49:04.577Z,86.14
2023-01-25T07:51:33.278Z,85.91
2023-01-25T07:54:04.364Z,85.53
2023-01-25T07:56:37.882Z,85.26
2023-01-25T07:59:08.683Z,85.18
2023-01-25T08:01:38.301Z,84.65
2023-01-25T08:04:07.832Z,85.55
2023-01-25T08:06:39.903Z,85.53
2023-01-25T08:09:13.427Z,85.71
2023-01-25T08:11:43.977Z,85.63
2023-01-25T08:14:12.807Z,85.38
2023-01-25T08:16:41.626Z,85.40
2023-01-25T08:19:12.130Z,85.26
2023-01-25T08:21:41.052Z,85.25
2023-01-25T08:24:10.610Z,85.70
2023-01-25T08:26:39.333Z,85.80
2023-01-25T08:29:09.435Z,85.20
2023-01-25T08:31:41.532Z,84.63
2023-01-25T08:34:12.427Z,84.20
2023-01-25T08:36:41.228Z,84.37
2023-01-25T08:39:13.079Z,85.36
2023-01-25T08:41:42.748Z,85.35
2023-01-25T08:44:13.059Z,84.56
2023-01-25T08:46:41.752Z,84.46
2023-01-25T08:49:11.609Z,84.33
2023-01-25T08:51:40.415Z,82.81
2023-01-25T08:54:13.019Z,84.22
2023-01-25T08:56:43.825Z,84.34
2023-01-25T08:59:15.240Z,83.28
2023-01-25T09:01:43.999Z,83.13
2023-01-25T09:04:12.758Z,82.50
2023-01-25T09:06:41.716Z,82.24
2023-01-25T09:09:10.518Z,80.95
2023-01-25T09:11:40.381Z,80.52
2023-01-25T09:14:09.111Z,80.36
2023-01-25T09:16:39.251Z,80.02
2023-01-25T09:19:08.160Z,79.98
2023-01-25T09:21:37.302Z,80.30
2023-01-25T09:24:08.050Z,79.54
2023-01-25T09:26:39.909Z,79.13
2023-01-25T09:29:11.006Z,79.38
2023-01-25T09:31:43.926Z,79.31
2023-01-25T09:34:33.843Z,78.82
2023-01-25T09:37:02.544Z,79.00
2023-01-25T09:39:31.244Z,79.05
2023-01-25T09:42:46.783Z,78.75
2023-01-25T09:45:31.348Z,79.29
2023-01-25T09:48:17.430Z,78.93
2023-01-25T09:51:17.826Z,78.39
2023-01-25T09:53:51.564Z,77.78
2023-01-25T09:56:26.649Z,77.35
2023-01-25T09:59:01.603Z,77.17
2023-01-25T10:01:43.123Z,77.34
2023-01-25T10:04:19.830Z,78.08
2023-01-25T10:07:00.917Z,78.24
2023-01-25T10:09:41.008Z,77.68
2023-01-25T10:12:21.839Z,77.59
2023-01-25T10:14:51.614Z,76.89
2023-01-25T10:17:34.965Z,77.93
2023-01-25T10:20:27.864Z,77.44
2023-01-25T10:23:40.611Z,78.55
2023-01-25T10:26:23.421Z,78.03
2023-01-25T10:29:02.687Z,78.66
2023-01-25T10:31:40.453Z,78.02
2023-01-25T10:34:21.465Z,77.79
2023-01-25T10:36:58.146Z,78.65
2023-01-25T10:39:26.955Z,78.46
2023-01-25T10:42:01.659Z,78.65
2023-01-25T10:44:30.486Z,78.07
2023-01-25T10:47:08.035Z,78.15
2023-01-25T10:49:47.662Z,77.64
2023-01-25T10:52:20.797Z,77.96
2023-01-25T10:55:08.128Z,78.77
2023-01-25T10:57:38.013Z,78.13
2023-01-25T11:00:11.650Z,79.42
2023-01-25T11:02:47.231Z,78.63
2023-01-25T11:05:34.093Z,77.78
2023-01-25T11:08:25.468Z,77.60
2023-01-25T11:10:55.368Z,77.41
2023-01-25T11:13:27.703Z,77.19
2023-01-25T11:16:17.772Z,76.81
2023-01-25T11:18:54.098Z,76.90
2023-01-25T11:21:25.849Z,77.20
2023-01-25T11:24:19.109Z,77.31
2023-01-25T11:26:48.316Z,77.21
2023-01-25T11:29:19.825Z,77.06
2023-01-25T11:31:54.789Z,78.73
2023-01-25T11:34:29.414Z,78.31
2023-01-25T11:37:43.032Z,78.75
2023-01-25T11:40:23.674Z,79.59
2023-01-25T11:43:05.314Z,79.50
2023-01-25T11:46:18.703Z,80.12
2023-01-25T11:49:38.135Z,80.61
2023-01-25T11:52:26.372Z,79.04
2023-01-25T11:55:11.309Z,79.22
2023-01-25T11:57:58.000Z,79.29
2023-01-25T12:00:52.314Z,79.51
2023-01-25T12:04:22.296Z,79.69
2023-01-25T12:07:06.806Z,80.72
2023-01-25T12:10:19.370Z,79.96
2023-01-25T12:13:02.291Z,80.31
2023-01-25T12:16:07.336Z,80.15
2023-01-25T12:19:22.873Z,79.46
2023-01-25T12:22:22.208Z,79.78
2023-01-25T12:25:03.924Z,79.42
2023-01-25T12:27:55.611Z,79.58
2023-01-25T12:30:44.909Z,79.30
2023-01-25T12:33:20.951Z,79.00
2023-01-25T12:35:59.115Z,78.89
2023-01-25T12:38:36.494Z,78.93
2023-01-25T12:41:20.115Z,78.60
2023-01-25T12:43:56.732Z,78.27
2023-01-25T12:46:33.136Z,78.37
2023-01-25T12:49:12.844Z,78.69
2023-01-25T12:51:44.786Z,78.17
2023-01-25T12:54:24.105Z,77.97
2023-01-25T12:57:06.702Z,77.61
2023-01-25T12:59:53.680Z,77.62
2023-01-25T13:03:00.181Z,77.63
2023-01-25T13:05:40.705Z,77.93
2023-01-25T13:08:32.175Z,77.49
2023-01-25T13:11:22.203Z,78.33
2023-01-25T13:13:57.924Z,78.39
2023-01-25T13:16:45.227Z,78.32
2023-01-25T13:19:22.808Z,78.18
2023-01-25T13:21:56.677Z,78.38
2023-01-25T13:24:27.028Z,78.01
2023-01-25T13:27:26.876Z,77.68
2023-01-25T13:30:03.754Z,78.09
2023-01-25T13:33:07.117Z,78.80
2023-01-25T13:35:45.898Z,78.92
2023-01-25T13:38:41.656Z,78.57
2023-01-25T13:41:18.651Z,78.77
2023-01-25T13:44:28.526Z,78.06
2023-01-25T13:47:01.525Z,77.94
2023-01-25T13:49:48.636Z,78.18
2023-01-25T13:52:58.257Z,78.11
2023-01-25T13:55:27.589Z,78.31
2023-01-25T13:58:11.974Z,78.47
2023-01-25T14:00:58.315Z,78.61
2023-01-25T14:03:32.004Z,78.37
2023-01-25T14:06:04.265Z,78.46
2023-01-25T14:08:38.483Z,78.02
2023-01-25T14:11:07.663Z,78.13
2023-01-25T14:13:36.645Z,78.46
2023-01-25T14:16:24.300Z,78.29
2023-01-25T14:18:53.131Z,78.53
2023-01-25T14:21:24.626Z,78.88
2023-01-25T14:23:53.607Z,78.48
2023-01-25T14:26:25.973Z,78.59
2023-01-25T14:29:01.772Z,78.54
2023-01-25T14:31:38.422Z,78.63
2023-01-25T14:34:08.643Z,78.48
2023-01-25T14:36:38.880Z,78.49
2023-01-25T14:39:21.862Z,79.00
2023-01-25T14:42:20.297Z,78.43
2023-01-25T14:44:49.448Z,78.57
2023-01-25T14:47:30.015Z,78.33
2023-01-25T14:50:33.177Z,78.35
2023-01-25T14:53:19.687Z,78.36
2023-01-25T14:55:50.689Z,78.36
2023-01-25T14:58:24.836Z,78.39
2023-01-25T15:00:58.831Z,79.06
2023-01-25T15:03:29.354Z,78.87
2023-01-25T15:06:04.111Z,78.94
2023-01-25T15:08:40.814Z,79.09
2023-01-25T15:11:38.720Z,78.71
2023-01-25T15:14:21.591Z,78.92
2023-01-25T15:16:50.715Z,78.94
2023-01-25T15:19:29.803Z,79.08
2023-01-25T15:22:01.502Z,79.04
2023-01-25T15:24:35.009Z,79.05
2023-01-25T15:27:27.547Z,78.78
2023-01-25T15:29:56.621Z,78.68
2023-01-25T15:32:25.403Z,78.85
2023-01-25T15:34:54.202Z,79.32
2023-01-25T15:37:22.889Z,79.19
2023-01-25T15:39:53.173Z,79.61
2023-01-25T15:42:21.863Z,79.57
2023-01-25T15:44:50.599Z,79.68
2023-01-25T15:47:19.333Z,79.81
2023-01-25T15:49:51.095Z,79.90
2023-01-25T15:52:20.606Z,80.21
2023-01-25T15:54:59.917Z,80.24
2023-01-25T15:57:38.258Z,80.28
2023-01-25T16:00:09.192Z,79.96
2023-01-25T16:02:38.275Z,79.90
2023-01-25T16:05:08.295Z,79.87
2023-01-25T16:07:40.517Z,80.21
2023-01-25T16:10:22.988Z,79.89
2023-01-25T16:12:53.249Z,79.66
2023-01-25T16:15:21.909Z,79.62
2023-01-25T16:17:50.639Z,79.80
2023-01-25T16:20:22.957Z,80.08
2023-01-25T16:22:53.187Z,80.37
2023-01-25T16:25:50.543Z,80.33
2023-01-25T16:28:21.887Z,80.34
2023-01-25T16:30:51.324Z,80.31
2023-01-25T16:33:24.281Z,80.64
2023-01-25T16:36:16.031Z,80.67
2023-01-25T16:38:48.358Z,81.09
2023-01-25T16:41:23.589Z,81.16
2023-01-25T16:43:53.719Z,81.11
2023-01-25T16:46:24.973Z,81.57
2023-01-25T16:48:54.396Z,81.54
2023-01-25T16:51:25.653Z,81.77
2023-01-25T16:53:59.383Z,81.17
2023-01-25T16:56:31.993Z,81.87
2023-01-25T16:59:06.739Z,81.57
2023-01-25T17:01:35.995Z,82.13
2023-01-25T17:04:06.255Z,82.03
2023-01-25T17:06:37.714Z,81.71
2023-01-25T17:09:21.510Z,81.60
2023-01-25T17:11:51.612Z,82.03
2023-01-25T17:14:23.219Z,81.57
2023-01-25T17:16:55.292Z,82.11
2023-01-25T17:19:25.149Z,82.44
2023-01-25T17:21:54.181Z,82.51
2023-01-25T17:24:23.403Z,82.22
2023-01-25T17:26:56.686Z,81.79
2023-01-25T17:29:27.114Z,81.39
2023-01-25T17:31:55.976Z,82.16
2023-01-25T17:34:26.505Z,81.95
2023-01-25T17:36:55.943Z,82.10
2023-01-25T17:39:25.280Z,81.76
2023-01-25T17:41:54.738Z,81.84
2023-01-25T17:44:26.531Z,81.48
2023-01-25T17:46:55.895Z,81.66
2023-01-25T17:49:26.433Z,82.69
2023-01-25T17:51:55.214Z,82.56
2023-01-25T17:54:23.947Z,81.88
2023-01-25T17:56:54.154Z,82.06
2023-01-25T17:59:23.022Z,82.03
2023-01-25T18:01:53.167Z,81.70
2023-01-25T18:04:21.891Z,81.75
2023-01-25T18:06:52.385Z,81.98
2023-01-25T18:09:21.225Z,82.53
2023-01-25T18:11:50.287Z,82.36
2023-01-25T18:14:19.076Z,82.48
2023-01-25T18:16:49.525Z,83.34
2023-01-25T18:19:23.737Z,83.42
2023-01-25T18:21:53.997Z,83.54
2023-01-25T18:24:33.488Z,82.83
2023-01-25T18:27:09.246Z,82.45
2023-01-25T18:29:50.704Z,82.23
2023-01-25T18:32:19.408Z,82.08
2023-01-25T18:34:49.486Z,82.23
2023-01-25T18:37:23.398Z,82.21
2023-01-25T18:39:54.937Z,82.38
2023-01-25T18:42:26.331Z,81.83
2023-01-25T18:44:55.333Z,82.17
2023-01-25T18:47:24.647Z,82.16
2023-01-25T18:49:55.044Z,82.04
2023-01-25T18:52:25.226Z,82.26
2023-01-25T18:54:54.008Z,81.91
2023-01-25T18:57:22.992Z,82.17
2023-01-25T18:59:52.120Z,82.38
2023-01-25T19:02:21.376Z,82.39
2023-01-25T19:04:50.415Z,82.25
2023-01-25T19:07:20.673Z,82.63
2023-01-25T19:09:49.525Z,82.55
2023-01-25T19:12:18.136Z,82.28
2023-01-25T19:14:49.353Z,82.40
2023-01-25T19:17:18.358Z,83.48
2023-01-25T19:19:49.259Z,83.65
2023-01-25T19:22:22.560Z,83.36
2023-01-25T19:24:51.461Z,82.96
2023-01-25T19:27:20.805Z,83.09
2023-01-25T19:29:50.732Z,83.17
2023-01-25T19:32:21.723Z,83.29
2023-01-25T19:34:55.310Z,83.91
2023-01-25T19:37:26.037Z,83.79
2023-01-25T19:39:55.542Z,83.54
2023-01-25T19:42:24.890Z,83.51
2023-01-25T19:44:54.735Z,83.43
2023-01-25T19:47:24.031Z,83.54
2023-01-25T19:49:55.416Z,83.65
2023-01-25T19:52:26.474Z,84.26
2023-01-25T19:54:56.205Z,84.31
2023-01-25T19:57:27.216Z,83.87
2023-01-25T19:59:57.283Z,84.03
2023-01-25T20:02:28.352Z,83.55
2023-01-25T20:05:02.554Z,83.44
2023-01-25T20:07:35.138Z,83.70
2023-01-25T20:10:05.716Z,83.91
2023-01-25T20:12:35.632Z,83.70
2023-01-25T20:15:06.238Z,83.77
2023-01-25T20:17:37.021Z,83.82
2023-01-25T20:20:08.113Z,83.43
2023-01-25T20:22:39.237Z,84.21
2023-01-25T20:25:09.834Z,83.90
2023-01-25T20:27:39.329Z,83.62
2023-01-25T20:30:10.376Z,83.42
2023-01-25T20:32:39.704Z,83.36
2023-01-25T20:35:10.263Z,83.49
2023-01-25T20:37:44.481Z,83.29
2023-01-25T20:40:14.679Z,83.50
2023-01-25T20:42:43.756Z,83.32
2023-01-25T20:45:17.126Z,83.12
2023-01-25T20:47:46.320Z,83.30
2023-01-25T20:50:15.371Z,83.51
2023-01-25T20:52:48.951Z,83.66
2023-01-25T20:55:18.192Z,83.40
2023-01-25T20:57:47.098Z,83.55
2023-01-25T21:00:17.893Z,83.70
2023-01-25T21:02:46.669Z,83.53
2023-01-25T21:05:15.573Z,83.62
2023-01-25T21:07:44.374Z,83.70
2023-01-25T21:10:14.836Z,84.24
2023-01-25T21:12:43.613Z,84.08
2023-01-25T21:15:17.593Z,83.83
2023-01-25T21:17:51.955Z,83.36
2023-01-25T21:20:21.226Z,83.41
2023-01-25T21:22:49.967Z,83.58
2023-01-25T21:25:20.285Z,83.51
2023-01-25T21:27:49.980Z,83.31
2023-01-25T21:30:22.994Z,83.39
2023-01-25T21:32:52.004Z,83.83
2023-01-25T21:35:20.738Z,83.79
2023-01-25T21:37:50.420Z,83.84
2023-01-25T21:40:20.976Z,83.70
2023-01-25T21:42:49.757Z,83.68
2023-01-25T21:45:36.535Z,84.32
2023-01-25T21:48:05.886Z,83.84
2023-01-25T21:50:51.997Z,83.89
2023-01-25T21:53:20.889Z,83.76
2023-01-25T21:55:57.336Z,83.70
2023-01-25T21:58:26.072Z,83.37
2023-01-25T22:00:54.876Z,83.39
2023-01-25T22:03:24.497Z,83.59
2023-01-25T22:05:55.997Z,83.81
2023-01-25T22:08:24.881Z,83.85
2023-01-25T22:11:01.950Z,83.79
2023-01-25T22:13:31.558Z,83.74
2023-01-25T22:16:01.940Z,83.55
2023-01-25T22:18:35.798Z,83.11
2023-01-25T22:21:07.326Z,83.47
2023-01-25T22:23:36.815Z,83.88
2023-01-25T22:26:10.168Z,83.57
2023-01-25T22:28:47.146Z,83.13
2023-01-25T22:31:17.581Z,82.68
2023-01-25T22:33:46.760Z,82.40
2023-01-25T22:36:19.262Z,81.83
2023-01-25T22:38:48.578Z,82.67
2023-01-25T22:41:20.890Z,82.04
2023-01-25T22:43:49.942Z,82.97
2023-01-25T22:46:21.495Z,83.89
2023-01-25T22:48:50.726Z,83.79
2023-01-25T22:51:24.502Z,83.42
2023-01-25T22:53:54.298Z,83.19
2023-01-25T22:56:26.871Z,83.13
2023-01-25T22:58:56.209Z,82.96
2023-01-25T23:01:27.830Z,83.04
2023-01-25T23:03:57.072Z,82.60
2023-01-25T23:06:28.672Z,82.51
2023-01-25T23:09:03.348Z,82.52
2023-01-25T23:11:37.441Z,82.58
2023-01-25T23:14:25.690Z,83.67
2023-01-25T23:17:14.687Z,83.52
2023-01-25T23:19:42.381Z,83.29
2023-01-25T23:22:11.061Z,83.21
2023-01-25T23:24:39.736Z,82.58
2023-01-25T23:27:09.841Z,82.60
2023-01-25T23:29:38.512Z,82.47
2023-01-25T23:32:07.660Z,82.37
2023-01-25T23:34:39.592Z,82.68
2023-01-25T23:37:08.777Z,82.67
2023-01-25T23:39:37.632Z,82.72
2023-01-25T23:42:06.690Z,82.70
2023-01-25T23:44:36.981Z,82.46
2023-01-25T23:47:05.821Z,82.43
2023-01-25T23:49:34.544Z,82.26
2023-01-25T23:52:03.246Z,82.37
2023-01-25T23:54:31.974Z,82.75
2023-01-25T23:57:00.667Z,82.26
2023-01-25T23:59:29.309Z,82.18
